sensor_id;sensor_type;location;lat;lon;timestamp;pressure;altitude;pressure_sealevel;temperature;humidity
54872;BME280;43914;57.680;11.982;2023-05-20T00:01:58;102256.32;;;9.39;100.00
54872;BME280;43914;57.680;11.982;2023-05-20T00:04:23;102253.40;;;9.38;100.00
54872;BME280;43914;57.680;11.982;2023-05-20T00:06:49;102251.06;;;9.36;100.00
54872;BME280;43914;57.680;11.982;2023-05-20T00:09:15;102250.39;;;9.36;100.00
54872;BME280;43914;57.680;11.982;2023-05-20T00:11:44;102250.73;;;9.34;100.00
54872;BME280;43914;57.680;11.982;2023-05-20T00:14:10;102247.12;;;9.32;100.00
54872;BME280;43914;57.680;11.982;2023-05-20T00:16:35;102244.77;;;9.31;100.00
54872;BME280;43914;57.680;11.982;2023-05-20T00:19:01;102245.66;;;9.29;100.00
54872;BME280;43914;57.680;11.982;2023-05-20T00:21:26;102245.56;;;9.28;100.00
54872;BME280;43914;57.680;11.982;2023-05-20T00:23:52;102243.92;;;9.26;100.00
54872;BME280;43914;57.680;11.982;2023-05-20T00:26:17;102243.67;;;9.25;100.00
54872;BME280;43914;57.680;11.982;2023-05-20T00:28:43;102242.44;;;9.22;100.00
54872;BME280;43914;57.680;11.982;2023-05-20T00:31:08;102245.65;;;9.19;100.00
54872;BME280;43914;57.680;11.982;2023-05-20T00:33:35;102249.73;;;9.17;100.00
54872;BME280;43914;57.680;11.982;2023-05-20T00:36:00;102250.01;;;9.16;100.00
54872;BME280;43914;57.680;11.982;2023-05-20T00:38:26;102248.14;;;9.15;100.00
54872;BME280;43914;57.680;11.982;2023-05-20T00:40:51;102252.39;;;9.15;100.00
54872;BME280;43914;57.680;11.982;2023-05-20T00:43:17;102249.52;;;9.14;100.00
54872;BME280;43914;57.680;11.982;2023-05-20T00:45:45;102247.67;;;9.14;100.00
54872;BME280;43914;57.680;11.982;2023-05-20T00:48:11;102249.94;;;9.13;100.00
54872;BME280;43914;57.680;11.982;2023-05-20T00:50:38;102246.86;;;9.11;100.00
54872;BME280;43914;57.680;11.982;2023-05-20T00:53:05;102251.69;;;9.11;100.00
54872;BME280;43914;57.680;11.982;2023-05-20T00:55:31;102251.06;;;9.08;100.00
54872;BME280;43914;57.680;11.982;2023-05-20T00:57:57;102247.83;;;9.06;100.00
54872;BME280;43914;57.680;11.982;2023-05-20T01:00:26;102248.74;;;9.06;100.00
54872;BME280;43914;57.680;11.982;2023-05-20T01:02:52;102249.21;;;9.03;100.00
54872;BME280;43914;57.680;11.982;2023-05-20T01:05:17;102257.48;;;9.02;100.00
54872;BME280;43914;57.680;11.982;2023-05-20T01:07:43;102254.51;;;9.02;100.00
54872;BME280;43914;57.680;11.982;2023-05-20T01:10:09;102253.55;;;9.00;100.00
54872;BME280;43914;57.680;11.982;2023-05-20T01:12:41;102252.48;;;8.98;100.00
54872;BME280;43914;57.680;11.982;2023-05-20T01:15:10;102251.86;;;8.97;100.00
54872;BME280;43914;57.680;11.982;2023-05-20T01:17:42;102254.20;;;8.95;100.00
54872;BME280;43914;57.680;11.982;2023-05-20T01:20:09;102254.11;;;8.92;100.00
54872;BME280;43914;57.680;11.982;2023-05-20T01:22:49;102249.98;;;8.90;100.00
54872;BME280;43914;57.680;11.982;2023-05-20T01:25:17;102244.23;;;8.88;100.00
54872;BME280;43914;57.680;11.982;2023-05-20T01:27:42;102236.54;;;8.86;100.00
54872;BME280;43914;57.680;11.982;2023-05-20T01:30:09;102238.45;;;8.87;100.00
54872;BME280;43914;57.680;11.982;2023-05-20T01:32:46;102239.59;;;8.86;100.00
54872;BME280;43914;57.680;11.982;2023-05-20T01:35:14;102242.95;;;8.87;100.00
54872;BME280;43914;57.680;11.982;2023-05-20T01:37:40;102244.15;;;8.87;100.00
54872;BME280;43914;57.680;11.982;2023-05-20T01:40:07;102249.88;;;8.85;100.00
54872;BME280;43914;57.680;11.982;2023-05-20T01:42:34;102250.44;;;8.85;100.00
54872;BME280;43914;57.680;11.982;2023-05-20T01:45:01;102249.59;;;8.82;100.00
54872;BME280;43914;57.680;11.982;2023-05-20T01:47:27;102252.61;;;8.80;100.00
54872;BME280;43914;57.680;11.982;2023-05-20T01:49:52;102257.05;;;8.78;100.00
54872;BME280;43914;57.680;11.982;2023-05-20T01:52:21;102253.27;;;8.77;100.00
54872;BME280;43914;57.680;11.982;2023-05-20T01:54:47;102259.39;;;8.76;100.00
54872;BME280;43914;57.680;11.982;2023-05-20T01:57:22;102259.15;;;8.75;100.00
54872;BME280;43914;57.680;11.982;2023-05-20T01:59:48;102261.66;;;8.75;100.00
54872;BME280;43914;57.680;11.982;2023-05-20T02:02:14;102260.73;;;8.73;100.00
54872;BME280;43914;57.680;11.982;2023-05-20T02:04:42;102261.71;;;8.72;100.00
54872;BME280;43914;57.680;11.982;2023-05-20T02:07:10;102260.52;;;8.71;100.00
54872;BME280;43914;57.680;11.982;2023-05-20T02:09:36;102262.63;;;8.70;100.00
54872;BME280;43914;57.680;11.982;2023-05-20T02:12:02;102260.98;;;8.68;100.00
54872;BME280;43914;57.680;11.982;2023-05-20T02:14:27;102260.79;;;8.66;100.00
54872;BME280;43914;57.680;11.982;2023-05-20T02:16:52;102261.40;;;8.65;100.00
54872;BME280;43914;57.680;11.982;2023-05-20T02:19:18;102259.08;;;8.65;100.00
54872;BME280;43914;57.680;11.982;2023-05-20T02:21:48;102258.00;;;8.63;100.00
54872;BME280;43914;57.680;11.982;2023-05-20T02:24:15;102256.14;;;8.62;100.00
54872;BME280;43914;57.680;11.982;2023-05-20T02:26:41;102252.55;;;8.60;100.00
54872;BME280;43914;57.680;11.982;2023-05-20T02:29:06;102256.06;;;8.59;100.00
54872;BME280;43914;57.680;11.982;2023-05-20T02:31:32;102258.48;;;8.58;100.00
54872;BME280;43914;57.680;11.982;2023-05-20T02:33:57;102257.64;;;8.55;100.00
54872;BME280;43914;57.680;11.982;2023-05-20T02:36:23;102261.42;;;8.53;100.00
54872;BME280;43914;57.680;11.982;2023-05-20T02:38:48;102264.27;;;8.53;100.00
54872;BME280;43914;57.680;11.982;2023-05-20T02:41:15;102263.36;;;8.53;100.00
54872;BME280;43914;57.680;11.982;2023-05-20T02:43:41;102263.19;;;8.51;100.00
54872;BME280;43914;57.680;11.982;2023-05-20T02:46:09;102265.86;;;8.48;100.00
54872;BME280;43914;57.680;11.982;2023-05-20T02:48:34;102263.41;;;8.48;100.00
54872;BME280;43914;57.680;11.982;2023-05-20T02:51:00;102267.77;;;8.47;100.00
54872;BME280;43914;57.680;11.982;2023-05-20T02:53:25;102265.34;;;8.46;100.00
54872;BME280;43914;57.680;11.982;2023-05-20T02:55:51;102264.40;;;8.45;100.00
54872;BME280;43914;57.680;11.982;2023-05-20T02:58:16;102265.58;;;8.44;100.00
54872;BME280;43914;57.680;11.982;2023-05-20T03:00:42;102261.64;;;8.42;100.00
54872;BME280;43914;57.680;11.982;2023-05-20T03:03:08;102260.85;;;8.42;100.00
54872;BME280;43914;57.680;11.982;2023-05-20T03:05:38;102259.97;;;8.40;100.00
54872;BME280;43914;57.680;11.982;2023-05-20T03:08:07;102262.30;;;8.40;100.00
54872;BME280;43914;57.680;11.982;2023-05-20T03:10:37;102258.64;;;8.39;100.00
54872;BME280;43914;57.680;11.982;2023-05-20T03:13:04;102257.85;;;8.40;100.00
54872;BME280;43914;57.680;11.982;2023-05-20T03:15:38;102263.76;;;8.42;100.00
54872;BME280;43914;57.680;11.982;2023-05-20T03:18:05;102265.58;;;8.43;100.00
54872;BME280;43914;57.680;11.982;2023-05-20T03:20:31;102266.86;;;8.45;100.00
54872;BME280;43914;57.680;11.982;2023-05-20T03:22:57;102269.05;;;8.44;100.00
54872;BME280;43914;57.680;11.982;2023-05-20T03:25:23;102274.36;;;8.47;100.00
54872;BME280;43914;57.680;11.982;2023-05-20T03:27:50;102273.80;;;8.50;100.00
54872;BME280;43914;57.680;11.982;2023-05-20T03:30:16;102272.80;;;8.51;100.00
54872;BME280;43914;57.680;11.982;2023-05-20T03:32:43;102268.56;;;8.55;100.00
54872;BME280;43914;57.680;11.982;2023-05-20T03:35:08;102270.95;;;8.58;100.00
54872;BME280;43914;57.680;11.982;2023-05-20T03:37:34;102271.53;;;8.60;100.00
54872;BME280;43914;57.680;11.982;2023-05-20T03:40:00;102268.55;;;8.63;100.00
54872;BME280;43914;57.680;11.982;2023-05-20T03:42:26;102268.96;;;8.64;100.00
54872;BME280;43914;57.680;11.982;2023-05-20T03:44:51;102265.77;;;8.66;100.00
54872;BME280;43914;57.680;11.982;2023-05-20T03:47:17;102265.34;;;8.67;100.00
54872;BME280;43914;57.680;11.982;2023-05-20T03:49:42;102265.56;;;8.69;100.00
54872;BME280;43914;57.680;11.982;2023-05-20T03:52:08;102269.52;;;8.71;100.00
54872;BME280;43914;57.680;11.982;2023-05-20T03:54:33;102264.95;;;8.72;100.00
54872;BME280;43914;57.680;11.982;2023-05-20T03:57:00;102265.14;;;8.74;100.00
54872;BME280;43914;57.680;11.982;2023-05-20T03:59:27;102265.68;;;8.74;100.00
54872;BME280;43914;57.680;11.982;2023-05-20T04:01:53;102268.27;;;8.77;100.00
54872;BME280;43914;57.680;11.982;2023-05-20T04:04:18;102265.02;;;8.79;100.00
54872;BME280;43914;57.680;11.982;2023-05-20T04:06:44;102266.73;;;8.83;100.00
54872;BME280;43914;57.680;11.982;2023-05-20T04:09:10;102263.69;;;8.86;100.00
54872;BME280;43914;57.680;11.982;2023-05-20T04:11:36;102261.23;;;8.92;100.00
54872;BME280;43914;57.680;11.982;2023-05-20T04:14:02;102257.20;;;8.97;100.00
54872;BME280;43914;57.680;11.982;2023-05-20T04:16:27;102260.58;;;9.02;100.00
54872;BME280;43914;57.680;11.982;2023-05-20T04:18:54;102250.46;;;9.01;100.00
54872;BME280;43914;57.680;11.982;2023-05-20T04:21:20;102260.11;;;9.09;100.00
54872;BME280;43914;57.680;11.982;2023-05-20T04:23:45;102259.79;;;9.13;100.00
54872;BME280;43914;57.680;11.982;2023-05-20T04:26:11;102261.55;;;9.17;100.00
54872;BME280;43914;57.680;11.982;2023-05-20T04:28:37;102259.84;;;9.20;100.00
54872;BME280;43914;57.680;11.982;2023-05-20T04:31:03;102253.86;;;9.25;100.00
54872;BME280;43914;57.680;11.982;2023-05-20T04:33:30;102255.66;;;9.29;100.00
54872;BME280;43914;57.680;11.982;2023-05-20T04:35:58;102258.48;;;9.33;100.00
54872;BME280;43914;57.680;11.982;2023-05-20T04:38:24;102264.69;;;9.38;100.00
54872;BME280;43914;57.680;11.982;2023-05-20T04:40:57;102267.25;;;9.43;100.00
54872;BME280;43914;57.680;11.982;2023-05-20T04:43:23;102262.85;;;9.48;100.00
54872;BME280;43914;57.680;11.982;2023-05-20T04:45:50;102265.48;;;9.55;100.00
54872;BME280;43914;57.680;11.982;2023-05-20T04:48:18;102268.23;;;9.62;100.00
54872;BME280;43914;57.680;11.982;2023-05-20T04:50:44;102274.83;;;9.69;100.00
54872;BME280;43914;57.680;11.982;2023-05-20T04:53:10;102274.35;;;9.74;100.00
54872;BME280;43914;57.680;11.982;2023-05-20T04:55:35;102276.17;;;9.79;100.00
54872;BME280;43914;57.680;11.982;2023-05-20T04:58:02;102268.88;;;9.82;100.00
54872;BME280;43914;57.680;11.982;2023-05-20T05:00:28;102265.77;;;9.88;100.00
54872;BME280;43914;57.680;11.982;2023-05-20T05:02:54;102267.36;;;9.91;100.00
54872;BME280;43914;57.680;11.982;2023-05-20T05:05:20;102267.27;;;9.96;100.00
54872;BME280;43914;57.680;11.982;2023-05-20T05:07:45;102268.93;;;10.04;100.00
54872;BME280;43914;57.680;11.982;2023-05-20T05:10:11;102264.99;;;10.09;100.00
54872;BME280;43914;57.680;11.982;2023-05-20T05:12:36;102264.56;;;10.14;100.00
54872;BME280;43914;57.680;11.982;2023-05-20T05:15:02;102263.88;;;10.20;100.00
54872;BME280;43914;57.680;11.982;2023-05-20T05:17:28;102260.36;;;10.27;100.00
54872;BME280;43914;57.680;11.982;2023-05-20T05:19:53;102262.77;;;10.31;100.00
54872;BME280;43914;57.680;11.982;2023-05-20T05:22:19;102264.45;;;10.39;99.98
54872;BME280;43914;57.680;11.982;2023-05-20T05:24:44;102268.35;;;10.45;99.81
54872;BME280;43914;57.680;11.982;2023-05-20T05:27:10;102264.23;;;10.51;99.44
54872;BME280;43914;57.680;11.982;2023-05-20T05:29:35;102260.77;;;10.55;98.92
54872;BME280;43914;57.680;11.982;2023-05-20T05:32:01;102263.34;;;10.60;98.81
54872;BME280;43914;57.680;11.982;2023-05-20T05:34:26;102267.61;;;10.66;98.45
54872;BME280;43914;57.680;11.982;2023-05-20T05:36:52;102266.57;;;10.72;98.10
54872;BME280;43914;57.680;11.982;2023-05-20T05:39:17;102266.45;;;10.78;97.96
54872;BME280;43914;57.680;11.982;2023-05-20T05:41:43;102270.85;;;10.83;97.43
54872;BME280;43914;57.680;11.982;2023-05-20T05:44:08;102267.80;;;10.89;97.23
54872;BME280;43914;57.680;11.982;2023-05-20T05:46:34;102265.68;;;10.94;97.05
54872;BME280;43914;57.680;11.982;2023-05-20T05:48:59;102265.58;;;10.99;96.75
54872;BME280;43914;57.680;11.982;2023-05-20T05:51:26;102264.11;;;11.07;96.47
54872;BME280;43914;57.680;11.982;2023-05-20T05:53:53;102269.20;;;11.13;96.04
54872;BME280;43914;57.680;11.982;2023-05-20T05:56:18;102262.32;;;11.19;95.43
54872;BME280;43914;57.680;11.982;2023-05-20T05:58:44;102261.11;;;11.26;95.13
54872;BME280;43914;57.680;11.982;2023-05-20T06:01:09;102259.73;;;11.33;94.96
54872;BME280;43914;57.680;11.982;2023-05-20T06:03:35;102260.20;;;11.41;94.58
54872;BME280;43914;57.680;11.982;2023-05-20T06:06:01;102256.02;;;11.47;94.17
54872;BME280;43914;57.680;11.982;2023-05-20T06:08:26;102254.77;;;11.54;94.05
54872;BME280;43914;57.680;11.982;2023-05-20T06:10:52;102258.41;;;11.63;93.71
54872;BME280;43914;57.680;11.982;2023-05-20T06:13:19;102260.66;;;11.71;93.70
54872;BME280;43914;57.680;11.982;2023-05-20T06:15:44;102253.48;;;11.82;94.21
54872;BME280;43914;57.680;11.982;2023-05-20T06:18:11;102262.46;;;12.00;94.75
54872;BME280;43914;57.680;11.982;2023-05-20T06:20:37;102261.93;;;12.09;93.08
54872;BME280;43914;57.680;11.982;2023-05-20T06:23:02;102259.03;;;12.16;92.73
54872;BME280;43914;57.680;11.982;2023-05-20T06:25:28;102260.83;;;12.23;92.11
54872;BME280;43914;57.680;11.982;2023-05-20T06:27:53;102260.36;;;12.30;91.17
54872;BME280;43914;57.680;11.982;2023-05-20T06:30:19;102257.77;;;12.36;90.83
54872;BME280;43914;57.680;11.982;2023-05-20T06:32:45;102255.09;;;12.43;90.66
54872;BME280;43914;57.680;11.982;2023-05-20T06:35:10;102252.52;;;12.50;90.44
54872;BME280;43914;57.680;11.982;2023-05-20T06:37:36;102252.53;;;12.57;90.10
54872;BME280;43914;57.680;11.982;2023-05-20T06:40:02;102248.67;;;12.65;89.93
54872;BME280;43914;57.680;11.982;2023-05-20T06:42:27;102247.52;;;12.73;89.68
54872;BME280;43914;57.680;11.982;2023-05-20T06:44:53;102244.40;;;12.82;88.75
54872;BME280;43914;57.680;11.982;2023-05-20T06:47:19;102245.98;;;12.89;87.69
54872;BME280;43914;57.680;11.982;2023-05-20T06:49:44;102242.39;;;12.96;87.23
54872;BME280;43914;57.680;11.982;2023-05-20T06:52:10;102243.35;;;13.04;86.80
54872;BME280;43914;57.680;11.982;2023-05-20T06:54:37;102243.02;;;13.10;86.33
54872;BME280;43914;57.680;11.982;2023-05-20T06:57:06;102242.77;;;13.20;85.50
54872;BME280;43914;57.680;11.982;2023-05-20T06:59:33;102242.02;;;13.26;85.37
54872;BME280;43914;57.680;11.982;2023-05-20T07:01:59;102241.89;;;13.35;84.66
54872;BME280;43914;57.680;11.982;2023-05-20T07:04:25;102243.55;;;13.45;84.50
54872;BME280;43914;57.680;11.982;2023-05-20T07:06:50;102236.61;;;13.55;84.28
54872;BME280;43914;57.680;11.982;2023-05-20T07:09:16;102235.67;;;13.64;84.00
54872;BME280;43914;57.680;11.982;2023-05-20T07:11:42;102238.19;;;13.74;83.71
54872;BME280;43914;57.680;11.982;2023-05-20T07:14:07;102230.34;;;13.82;82.49
54872;BME280;43914;57.680;11.982;2023-05-20T07:16:33;102232.47;;;13.92;81.86
54872;BME280;43914;57.680;11.982;2023-05-20T07:18:59;102229.45;;;14.01;81.51
54872;BME280;43914;57.680;11.982;2023-05-20T07:21:25;102232.63;;;14.10;81.17
54872;BME280;43914;57.680;11.982;2023-05-20T07:23:51;102231.64;;;14.21;79.85
54872;BME280;43914;57.680;11.982;2023-05-20T07:26:16;102227.58;;;14.30;78.88
54872;BME280;43914;57.680;11.982;2023-05-20T07:28:42;102229.48;;;14.40;76.93
54872;BME280;43914;57.680;11.982;2023-05-20T07:31:09;102226.55;;;14.50;75.60
54872;BME280;43914;57.680;11.982;2023-05-20T07:33:35;102225.89;;;14.58;75.23
54872;BME280;43914;57.680;11.982;2023-05-20T07:36:01;102221.77;;;14.66;74.28
54872;BME280;43914;57.680;11.982;2023-05-20T07:38:27;102220.13;;;14.74;74.45
54872;BME280;43914;57.680;11.982;2023-05-20T07:40:56;102222.77;;;14.83;72.33
54872;BME280;43914;57.680;11.982;2023-05-20T07:43:22;102224.00;;;14.88;70.98
54872;BME280;43914;57.680;11.982;2023-05-20T07:45:47;102223.98;;;14.91;70.47
54872;BME280;43914;57.680;11.982;2023-05-20T07:48:13;102220.66;;;14.96;69.56
54872;BME280;43914;57.680;11.982;2023-05-20T07:50:38;102217.27;;;15.06;69.50
54872;BME280;43914;57.680;11.982;2023-05-20T07:53:04;102217.71;;;15.13;68.13
54872;BME280;43914;57.680;11.982;2023-05-20T07:55:33;102210.68;;;15.22;67.56
54872;BME280;43914;57.680;11.982;2023-05-20T07:58:00;102212.86;;;15.30;64.76
54872;BME280;43914;57.680;11.982;2023-05-20T08:00:25;102213.21;;;15.33;64.25
54872;BME280;43914;57.680;11.982;2023-05-20T08:02:51;102210.59;;;15.40;63.53
54872;BME280;43914;57.680;11.982;2023-05-20T08:05:16;102212.84;;;15.47;61.56
54872;BME280;43914;57.680;11.982;2023-05-20T08:07:42;102216.04;;;15.55;59.69
54872;BME280;43914;57.680;11.982;2023-05-20T08:10:08;102210.66;;;15.63;59.92
54872;BME280;43914;57.680;11.982;2023-05-20T08:12:34;102204.94;;;15.70;59.57
54872;BME280;43914;57.680;11.982;2023-05-20T08:14:59;102198.86;;;15.76;58.13
54872;BME280;43914;57.680;11.982;2023-05-20T08:17:25;102199.91;;;15.83;57.40
54872;BME280;43914;57.680;11.982;2023-05-20T08:19:50;102201.23;;;15.91;55.88
54872;BME280;43914;57.680;11.982;2023-05-20T08:22:16;102201.75;;;15.97;56.78
54872;BME280;43914;57.680;11.982;2023-05-20T08:24:41;102194.84;;;16.02;56.17
54872;BME280;43914;57.680;11.982;2023-05-20T08:27:07;102199.95;;;16.09;55.65
54872;BME280;43914;57.680;11.982;2023-05-20T08:29:32;102196.19;;;16.17;55.46
54872;BME280;43914;57.680;11.982;2023-05-20T08:31:58;102197.71;;;16.24;55.37
54872;BME280;43914;57.680;11.982;2023-05-20T08:34:23;102196.06;;;16.30;54.30
54872;BME280;43914;57.680;11.982;2023-05-20T08:36:49;102192.20;;;16.36;54.25
54872;BME280;43914;57.680;11.982;2023-05-20T08:39:14;102197.08;;;16.41;54.19
54872;BME280;43914;57.680;11.982;2023-05-20T08:41:40;102194.29;;;16.41;54.13
54872;BME280;43914;57.680;11.982;2023-05-20T08:44:07;102191.41;;;16.48;54.75
54872;BME280;43914;57.680;11.982;2023-05-20T08:46:36;102190.65;;;16.53;53.57
54872;BME280;43914;57.680;11.982;2023-05-20T08:49:02;102195.43;;;16.59;53.68
54872;BME280;43914;57.680;11.982;2023-05-20T08:51:29;102195.01;;;16.58;53.93
54872;BME280;43914;57.680;11.982;2023-05-20T08:53:58;102188.69;;;16.56;54.02
54872;BME280;43914;57.680;11.982;2023-05-20T08:56:24;102190.09;;;16.58;53.80
54872;BME280;43914;57.680;11.982;2023-05-20T08:58:51;102180.49;;;16.63;53.81
54872;BME280;43914;57.680;11.982;2023-05-20T09:01:22;102180.83;;;16.69;54.06
54872;BME280;43914;57.680;11.982;2023-05-20T09:03:48;102177.48;;;16.77;54.20
54872;BME280;43914;57.680;11.982;2023-05-20T09:06:15;102174.55;;;16.82;54.20
54872;BME280;43914;57.680;11.982;2023-05-20T09:08:41;102175.47;;;16.89;54.11
54872;BME280;43914;57.680;11.982;2023-05-20T09:11:09;102176.10;;;16.94;52.91
54872;BME280;43914;57.680;11.982;2023-05-20T09:13:34;102172.11;;;16.98;53.24
54872;BME280;43914;57.680;11.982;2023-05-20T09:16:00;102165.64;;;17.06;53.92
54872;BME280;43914;57.680;11.982;2023-05-20T09:18:27;102163.73;;;17.11;53.64
54872;BME280;43914;57.680;11.982;2023-05-20T09:20:53;102162.85;;;17.15;53.35
54872;BME280;43914;57.680;11.982;2023-05-20T09:23:20;102163.21;;;17.22;53.50
54872;BME280;43914;57.680;11.982;2023-05-20T09:25:50;102160.98;;;17.30;56.61
54872;BME280;43914;57.680;11.982;2023-05-20T09:28:18;102159.67;;;17.40;59.31
54872;BME280;43914;57.680;11.982;2023-05-20T09:30:47;102162.95;;;17.53;58.26
54872;BME280;43914;57.680;11.982;2023-05-20T09:33:13;102156.61;;;17.59;55.57
54872;BME280;43914;57.680;11.982;2023-05-20T09:35:38;102153.23;;;17.67;54.99
54872;BME280;43914;57.680;11.982;2023-05-20T09:38:05;102156.41;;;17.77;55.41
54872;BME280;43914;57.680;11.982;2023-05-20T09:40:34;102158.41;;;17.88;54.05
54872;BME280;43914;57.680;11.982;2023-05-20T09:43:03;102160.53;;;17.98;53.21
54872;BME280;43914;57.680;11.982;2023-05-20T09:45:29;102156.58;;;18.03;51.89
54872;BME280;43914;57.680;11.982;2023-05-20T09:47:55;102152.34;;;18.10;51.65
54872;BME280;43914;57.680;11.982;2023-05-20T09:50:22;102146.74;;;18.18;51.85
54872;BME280;43914;57.680;11.982;2023-05-20T09:52:50;102153.98;;;18.31;51.10
54872;BME280;43914;57.680;11.982;2023-05-20T09:55:17;102154.16;;;18.42;52.01
54872;BME280;43914;57.680;11.982;2023-05-20T09:57:44;102153.34;;;18.51;52.54
54872;BME280;43914;57.680;11.982;2023-05-20T10:00:11;102154.81;;;18.58;52.32
54872;BME280;43914;57.680;11.982;2023-05-20T10:02:46;102151.66;;;18.57;52.40
54872;BME280;43914;57.680;11.982;2023-05-20T10:05:20;102149.48;;;18.57;53.78
54872;BME280;43914;57.680;11.982;2023-05-20T10:21:21;102148.98;;;18.67;53.47
54872;BME280;43914;57.680;11.982;2023-05-20T10:23:50;102147.81;;;18.71;53.62
54872;BME280;43914;57.680;11.982;2023-05-20T10:26:17;102149.69;;;18.80;53.48
54872;BME280;43914;57.680;11.982;2023-05-20T10:28:44;102149.79;;;18.75;52.62
54872;BME280;43914;57.680;11.982;2023-05-20T10:31:21;102150.89;;;18.63;52.79
54872;BME280;43914;57.680;11.982;2023-05-20T10:33:52;102145.61;;;18.45;53.22
54872;BME280;43914;57.680;11.982;2023-05-20T10:36:28;102147.46;;;18.42;53.94
54872;BME280;43914;57.680;11.982;2023-05-20T10:38:59;102147.02;;;18.40;54.51
54872;BME280;43914;57.680;11.982;2023-05-20T10:41:26;102144.89;;;18.41;54.96
54872;BME280;43914;57.680;11.982;2023-05-20T10:44:02;102139.56;;;18.40;54.94
54872;BME280;43914;57.680;11.982;2023-05-20T10:46:29;102140.07;;;18.38;55.42
54872;BME280;43914;57.680;11.982;2023-05-20T10:48:55;102138.06;;;18.41;55.64
54872;BME280;43914;57.680;11.982;2023-05-20T10:51:22;102139.21;;;18.44;54.75
54872;BME280;43914;57.680;11.982;2023-05-20T10:53:51;102137.25;;;18.28;54.46
54872;BME280;43914;57.680;11.982;2023-05-20T10:56:19;102130.51;;;18.10;55.47
54872;BME280;43914;57.680;11.982;2023-05-20T10:58:49;102131.06;;;17.97;56.55
54872;BME280;43914;57.680;11.982;2023-05-20T11:01:15;102133.30;;;17.94;56.39
54872;BME280;43914;57.680;11.982;2023-05-20T11:03:42;102130.00;;;17.83;56.70
54872;BME280;43914;57.680;11.982;2023-05-20T11:06:14;102129.98;;;17.83;57.09
54872;BME280;43914;57.680;11.982;2023-05-20T11:08:40;102138.06;;;17.98;57.29
54872;BME280;43914;57.680;11.982;2023-05-20T11:11:05;102146.80;;;18.00;56.05
54872;BME280;43914;57.680;11.982;2023-05-20T11:13:31;102137.23;;;17.97;55.93
54872;BME280;43914;57.680;11.982;2023-05-20T11:15:57;102134.03;;;17.93;55.87
54872;BME280;43914;57.680;11.982;2023-05-20T11:18:26;102129.34;;;17.91;55.53
54872;BME280;43914;57.680;11.982;2023-05-20T11:20:58;102132.01;;;17.82;54.41
54872;BME280;43914;57.680;11.982;2023-05-20T11:23:25;102130.85;;;17.65;54.75
54872;BME280;43914;57.680;11.982;2023-05-20T11:25:52;102121.45;;;17.56;54.94
54872;BME280;43914;57.680;11.982;2023-05-20T11:28:19;102113.93;;;17.46;55.01
54872;BME280;43914;57.680;11.982;2023-05-20T11:30:46;102108.34;;;17.32;55.83
54872;BME280;43914;57.680;11.982;2023-05-20T11:33:13;102113.02;;;17.36;56.21
54872;BME280;43914;57.680;11.982;2023-05-20T11:35:47;102115.52;;;17.41;56.47
54872;BME280;43914;57.680;11.982;2023-05-20T11:38:14;102117.48;;;17.49;56.97
54872;BME280;43914;57.680;11.982;2023-05-20T11:40:52;102120.05;;;17.58;56.85
54872;BME280;43914;57.680;11.982;2023-05-20T11:43:19;102113.97;;;17.68;56.68
54872;BME280;43914;57.680;11.982;2023-05-20T11:45:47;102110.32;;;17.72;56.13
54872;BME280;43914;57.680;11.982;2023-05-20T11:48:13;102101.13;;;17.73;56.81
54872;BME280;43914;57.680;11.982;2023-05-20T11:50:42;102094.36;;;17.81;57.28
54872;BME280;43914;57.680;11.982;2023-05-20T11:53:10;102093.63;;;17.98;57.72
54872;BME280;43914;57.680;11.982;2023-05-20T11:56:07;102091.68;;;18.15;57.24
54872;BME280;43914;57.680;11.982;2023-05-20T11:58:33;102092.10;;;18.17;56.03
54872;BME280;43914;57.680;11.982;2023-05-20T12:00:58;102093.74;;;18.18;55.76
54872;BME280;43914;57.680;11.982;2023-05-20T12:03:24;102088.81;;;18.21;55.83
54872;BME280;43914;57.680;11.982;2023-05-20T12:05:50;102084.48;;;18.24;55.75
54872;BME280;43914;57.680;11.982;2023-05-20T12:08:17;102079.69;;;18.30;56.07
54872;BME280;43914;57.680;11.982;2023-05-20T12:10:42;102087.02;;;18.39;55.52
54872;BME280;43914;57.680;11.982;2023-05-20T12:13:09;102080.76;;;18.38;54.82
54872;BME280;43914;57.680;11.982;2023-05-20T12:15:37;102082.82;;;18.39;54.70
54872;BME280;43914;57.680;11.982;2023-05-20T12:18:03;102081.30;;;18.45;54.67
54872;BME280;43914;57.680;11.982;2023-05-20T12:20:29;102075.40;;;18.52;54.40
54872;BME280;43914;57.680;11.982;2023-05-20T12:22:56;102071.52;;;18.70;54.72
54872;BME280;43914;57.680;11.982;2023-05-20T12:25:23;102074.26;;;18.85;54.06
54872;BME280;43914;57.680;11.982;2023-05-20T12:27:49;102079.66;;;18.95;54.47
54872;BME280;43914;57.680;11.982;2023-05-20T12:30:16;102077.80;;;19.12;53.94
54872;BME280;43914;57.680;11.982;2023-05-20T12:32:43;102072.57;;;19.19;53.68
54872;BME280;43914;57.680;11.982;2023-05-20T12:35:09;102069.80;;;19.25;53.08
54872;BME280;43914;57.680;11.982;2023-05-20T12:37:36;102077.42;;;19.36;52.36
54872;BME280;43914;57.680;11.982;2023-05-20T12:40:02;102077.20;;;19.47;51.87
54872;BME280;43914;57.680;11.982;2023-05-20T12:42:39;102070.70;;;19.57;51.43
54872;BME280;43914;57.680;11.982;2023-05-20T12:45:06;102068.02;;;19.72;51.17
54872;BME280;43914;57.680;11.982;2023-05-20T12:47:32;102056.65;;;19.92;50.87
54872;BME280;43914;57.680;11.982;2023-05-20T12:49:59;102060.09;;;20.08;49.61
54872;BME280;43914;57.680;11.982;2023-05-20T12:52:26;102068.48;;;20.20;48.51